Time;durP1;ratioP1;P1;durP2;ratioP2;P2;SDS_P1;SDS_P2;PMS_P1;PMS_P2;Temp;Humidity;BMP_temperature;BMP_pressure;BME280_temperature;BME280_humidity;BME280_pressure;Samples;Min_cycle;Max_cycle;Signal;HPM_P1;HPM_P2
2021/12/12 00:01:14;;;;;;;5.82;3.95;;;-10.20;99.90;;;;;;4390715;32;20161;-68
2021/12/12 00:03:47;;;;;;;6.87;3.80;;;-10.20;99.90;;;;;;4378654;32;20088;-69
2021/12/12 00:06:20;;;;;;;7.47;4.10;;;-10.30;99.90;;;;;;4390662;32;20080;-69
2021/12/12 00:08:54;;;;;;;6.90;3.95;;;-10.40;99.90;;;;;;4404304;32;20529;-70
2021/12/12 00:11:28;;;;;;;8.45;4.40;;;-10.40;99.90;;;;;;4377627;32;20077;-69
2021/12/12 00:14:04;;;;;;;7.75;4.00;;;-10.50;99.90;;;;;;4390461;32;20550;-69
2021/12/12 00:16:32;;;;;;;6.40;3.78;;;-10.40;99.90;;;;;;4378111;32;20080;-70
2021/12/12 00:18:59;;;;;;;6.82;4.25;;;-10.50;99.90;;;;;;4390360;32;20132;-69
2021/12/12 00:21:29;;;;;;;7.68;4.00;;;-10.50;99.90;;;;;;4379358;32;20521;-69
2021/12/12 00:23:57;;;;;;;6.62;3.95;;;-10.50;99.90;;;;;;4377939;32;20088;-69
2021/12/12 00:26:25;;;;;;;6.95;3.75;;;-10.60;99.90;;;;;;4377538;32;20150;-69
2021/12/12 00:28:52;;;;;;;7.03;3.92;;;-10.50;99.90;;;;;;4377713;32;20105;-70
2021/12/12 00:31:22;;;;;;;7.22;3.87;;;-10.40;99.90;;;;;;4389988;32;20108;-70
2021/12/12 00:33:53;;;;;;;6.78;3.83;;;-10.50;99.90;;;;;;4377379;32;20077;-69
2021/12/12 00:36:20;;;;;;;8.50;4.40;;;-10.50;99.90;;;;;;4364988;32;20511;-69
2021/12/12 00:38:58;;;;;;;6.45;4.30;;;-10.50;99.90;;;;;;4390383;32;20504;-69
2021/12/12 00:41:53;;;;;;;6.15;3.80;;;-10.40;99.90;;;;;;4389900;32;20091;-69
2021/12/12 00:44:21;;;;;;;10.88;4.78;;;-10.40;99.90;;;;;;4403788;32;20463;-70
2021/12/12 00:46:48;;;;;;;5.93;3.90;;;-10.40;99.90;;;;;;4377304;32;20154;-70
2021/12/12 00:49:17;;;;;;;6.70;4.37;;;-10.50;99.90;;;;;;4389645;32;20073;-68
2021/12/12 00:51:45;;;;;;;7.90;4.00;;;-10.70;99.90;;;;;;4377514;32;20162;-70
2021/12/12 00:54:14;;;;;;;7.65;4.15;;;-10.60;99.90;;;;;;4368785;32;20154;-70
2021/12/12 00:56:42;;;;;;;8.27;4.30;;;-10.50;99.90;;;;;;4388076;32;20097;-69
2021/12/12 00:59:08;;;;;;;7.25;4.80;;;-10.50;99.90;;;;;;4375006;32;20515;-68
2021/12/12 01:01:56;;;;;;;9.38;4.65;;;-10.60;99.90;;;;;;4362143;32;20104;-69
2021/12/12 01:04:36;;;;;;;7.70;4.90;;;-10.50;99.90;;;;;;4374502;32;20154;-69
2021/12/12 01:07:07;;;;;;;6.25;4.37;;;-10.50;99.90;;;;;;4374360;32;20137;-69
2021/12/12 01:09:43;;;;;;;8.95;5.35;;;-10.60;99.90;;;;;;4364670;32;20090;-69
2021/12/12 01:12:16;;;;;;;7.55;4.85;;;-10.40;99.90;;;;;;4339874;32;20069;-69
2021/12/12 01:14:51;;;;;;;7.22;4.20;;;-10.50;99.90;;;;;;4364766;32;20084;-70
2021/12/12 01:17:34;;;;;;;6.32;4.25;;;-10.70;99.90;;;;;;4351666;32;20077;-69
2021/12/12 01:20:22;;;;;;;7.53;5.07;;;-10.70;99.90;;;;;;4352056;32;20092;-69
2021/12/12 01:22:53;;;;;;;8.18;5.47;;;-10.70;99.90;;;;;;4364640;32;20089;-69
2021/12/12 01:25:34;;;;;;;8.38;5.32;;;-10.80;99.90;;;;;;4364347;32;20112;-69
2021/12/12 01:28:03;;;;;;;9.82;6.05;;;-10.80;99.90;;;;;;4378045;32;20100;-69
2021/12/12 01:30:29;;;;;;;8.75;5.75;;;-10.80;99.90;;;;;;4351570;32;20530;-68
2021/12/12 01:32:57;;;;;;;9.40;6.15;;;-10.80;99.90;;;;;;4352529;32;20082;-69
2021/12/12 01:35:26;;;;;;;8.45;4.93;;;-10.80;99.90;;;;;;4364353;32;20081;-69
2021/12/12 01:40:53;;;;;;;7.15;4.85;;;-10.70;99.90;;;;;;4366195;32;20082;-69
2021/12/12 01:43:35;;;;;;;6.00;4.32;;;-10.70;99.90;;;;;;4352162;32;20117;-69
2021/12/12 01:46:33;;;;;;;7.05;4.35;;;-10.80;99.90;;;;;;4364420;32;20082;-70
2021/12/12 01:49:15;;;;;;;6.40;4.30;;;-10.60;99.90;;;;;;4377697;32;20066;-70
2021/12/12 01:51:43;;;;;;;5.78;3.80;;;-10.80;99.90;;;;;;4377656;32;20136;-70
2021/12/12 01:54:16;;;;;;;7.35;4.40;;;-10.60;99.90;;;;;;4351534;32;20071;-69
2021/12/12 01:56:53;;;;;;;5.72;3.97;;;-10.60;99.90;;;;;;4351169;32;20074;-70
2021/12/12 01:59:24;;;;;;;8.55;4.72;;;-10.60;99.90;;;;;;4351884;32;20098;-69
2021/12/12 02:02:02;;;;;;;7.37;4.15;;;-10.60;99.90;;;;;;4351435;32;20093;-68
2021/12/12 02:04:38;;;;;;;7.00;4.28;;;-10.40;99.90;;;;;;4364182;32;20081;-69
2021/12/12 02:07:07;;;;;;;5.97;3.50;;;-10.40;99.90;;;;;;4364601;32;20150;-69
2021/12/12 02:09:34;;;;;;;6.10;3.40;;;-10.30;99.90;;;;;;4352079;32;20089;-70
2021/12/12 02:12:01;;;;;;;8.00;3.83;;;-10.30;99.90;;;;;;4364169;32;20094;-70
2021/12/12 02:14:32;;;;;;;7.05;3.95;;;-10.30;99.90;;;;;;4364938;32;20077;-69
2021/12/12 02:17:17;;;;;;;7.25;3.90;;;-10.40;99.90;;;;;;4351724;32;20092;-70
2021/12/12 02:20:12;;;;;;;6.72;3.55;;;-10.50;99.90;;;;;;4362789;32;20081;-70
2021/12/12 02:36:13;;;;;;;5.75;3.50;;;-10.60;99.90;;;;;;4365480;32;19962;-69
2021/12/12 02:38:40;;;;;;;6.72;4.15;;;-10.50;99.90;;;;;;4363199;32;20085;-69
2021/12/12 02:41:12;;;;;;;6.12;3.70;;;-10.60;99.90;;;;;;4363294;32;20078;-69
2021/12/12 02:43:46;;;;;;;7.60;4.53;;;-10.60;99.90;;;;;;4350701;32;20070;-68
2021/12/12 02:46:18;;;;;;;8.50;5.30;;;-10.70;99.90;;;;;;4350942;32;20084;-69
2021/12/12 02:48:47;;;;;;;8.90;6.18;;;-10.80;99.90;;;;;;4351420;32;20460;-70
2021/12/12 02:51:18;;;;;;;12.00;6.43;;;-10.70;99.90;;;;;;4350932;32;20090;-70
2021/12/12 02:53:54;;;;;;;10.38;5.28;;;-10.60;99.90;;;;;;4362798;32;20085;-70
2021/12/12 02:56:30;;;;;;;8.75;3.97;;;-10.70;99.90;;;;;;4350626;32;20077;-70
2021/12/12 02:58:57;;;;;;;8.00;4.67;;;-10.70;99.90;;;;;;4365033;32;20089;-70
2021/12/12 03:01:29;;;;;;;7.07;4.87;;;-10.60;99.90;;;;;;4364137;32;20089;-70
2021/12/12 03:03:56;;;;;;;9.82;4.50;;;-10.70;99.90;;;;;;4363042;32;20094;-70
2021/12/12 03:06:28;;;;;;;6.95;4.07;;;-10.70;99.90;;;;;;4350359;32;20078;-70
2021/12/12 03:09:12;;;;;;;7.35;4.80;;;-10.60;99.90;;;;;;4350512;32;20090;-69
2021/12/12 03:11:39;;;;;;;12.80;6.90;;;-10.60;99.90;;;;;;4376442;32;20516;-69
2021/12/12 03:14:07;;;;;;;14.15;7.30;;;-10.70;99.90;;;;;;4362889;32;20108;-68
2021/12/12 03:16:36;;;;;;;10.23;5.85;;;-10.70;99.90;;;;;;4362530;32;20088;-69
2021/12/12 03:19:05;;;;;;;11.23;5.68;;;-10.80;99.90;;;;;;4362720;32;20086;-69
2021/12/12 03:21:42;;;;;;;8.57;4.90;;;-10.70;99.90;;;;;;4363077;32;20167;-69
2021/12/12 03:24:16;;;;;;;13.10;7.85;;;-10.60;99.90;;;;;;4351380;32;20097;-69
2021/12/12 03:26:44;;;;;;;12.90;7.78;;;-10.60;99.90;;;;;;4338063;32;20073;-68
2021/12/12 03:29:11;;;;;;;17.55;11.30;;;-10.60;99.90;;;;;;4362236;32;20170;-69
2021/12/12 03:31:46;;;;;;;16.70;11.50;;;-10.70;99.90;;;;;;4337905;32;20172;-69
2021/12/12 03:34:21;;;;;;;14.65;9.00;;;-10.70;99.90;;;;;;4350771;32;20062;-69
2021/12/12 03:36:49;;;;;;;15.02;11.07;;;-10.70;99.90;;;;;;4337794;32;20468;-69
2021/12/12 03:39:30;;;;;;;18.50;12.00;;;-10.60;99.90;;;;;;4350759;32;20093;-68
2021/12/12 03:42:00;;;;;;;19.17;14.15;;;-10.80;99.90;;;;;;4362292;32;20556;-70
2021/12/12 03:44:30;;;;;;;19.00;14.43;;;-10.80;99.90;;;;;;4349983;32;20074;-69
2021/12/12 03:47:04;;;;;;;13.10;9.82;;;-10.80;99.90;;;;;;4362183;32;20536;-70
2021/12/12 03:49:37;;;;;;;12.77;9.50;;;-10.90;99.90;;;;;;4350275;32;20098;-68
2021/12/12 03:52:10;;;;;;;13.45;8.25;;;-10.80;99.90;;;;;;4362711;32;20098;-70
2021/12/12 03:54:38;;;;;;;15.10;9.77;;;-10.80;99.90;;;;;;4349761;32;20062;-69
2021/12/12 03:57:07;;;;;;;19.77;14.45;;;-10.80;99.90;;;;;;4349832;32;20504;-69
2021/12/12 03:59:34;;;;;;;17.48;10.27;;;-10.80;99.90;;;;;;4362139;32;20084;-68
2021/12/12 04:02:14;;;;;;;12.47;7.37;;;-10.80;99.90;;;;;;3857216;37;20058;-70
2021/12/12 04:04:45;;;;;;;13.27;7.50;;;-10.90;99.90;;;;;;4418537;32;20164;-69
2021/12/12 04:07:46;;;;;;;17.17;8.77;;;-10.80;99.90;;;;;;3857288;37;20066;-69
2021/12/12 04:10:18;;;;;;;17.08;9.70;;;-10.90;99.90;;;;;;4418201;32;20171;-69
2021/12/12 04:12:44;;;;;;;19.23;12.07;;;-10.80;99.90;;;;;;4418786;32;20533;-70
2021/12/12 04:15:11;;;;;;;20.98;11.95;;;-11.00;99.90;;;;;;4405338;32;20169;-70
2021/12/12 04:17:38;;;;;;;16.90;10.00;;;-11.00;99.90;;;;;;4405414;32;20526;-69
2021/12/12 04:20:27;;;;;;;15.98;8.95;;;-11.00;99.90;;;;;;4392887;32;20470;-70
2021/12/12 04:22:55;;;;;;;12.88;8.27;;;-11.10;99.90;;;;;;4393598;32;20439;-70
2021/12/12 04:25:23;;;;;;;12.88;7.62;;;-11.10;99.90;;;;;;4405686;32;20101;-69
2021/12/12 04:27:52;;;;;;;13.85;7.50;;;-11.10;99.90;;;;;;4418087;32;20069;-70
2021/12/12 04:30:19;;;;;;;14.05;7.62;;;-11.10;99.90;;;;;;4418529;32;20166;-70
2021/12/12 04:32:47;;;;;;;14.52;7.35;;;-11.10;99.90;;;;;;4418144;32;20106;-69
2021/12/12 04:35:25;;;;;;;14.73;7.85;;;-11.20;99.90;;;;;;4418008;32;20073;-69
2021/12/12 04:37:57;;;;;;;17.58;7.82;;;-11.00;99.90;;;;;;4417840;32;20085;-69
2021/12/12 04:40:28;;;;;;;14.00;7.82;;;-11.00;99.90;;;;;;4417907;32;20113;-69
2021/12/12 04:42:56;;;;;;;15.95;7.45;;;-11.00;99.90;;;;;;4419400;32;20076;-70
2021/12/12 04:45:51;;;;;;;13.77;8.15;;;-11.10;99.90;;;;;;4405650;32;20082;-70
2021/12/12 04:51:48;;;;;;;15.27;10.80;;;-11.40;99.90;;;;;;4417867;32;20065;-69
2021/12/12 04:54:36;;;;;;;19.08;11.30;;;-11.40;99.90;;;;;;4402502;32;20072;-70
2021/12/12 04:57:18;;;;;;;17.65;10.60;;;-11.40;99.90;;;;;;4402247;32;20132;-70
2021/12/12 04:59:57;;;;;;;15.55;9.25;;;-11.20;99.90;;;;;;4415075;32;20178;-69
2021/12/12 05:02:34;;;;;;;14.60;9.75;;;-11.40;99.90;;;;;;4402167;32;20085;-68
2021/12/12 05:05:07;;;;;;;16.98;9.80;;;-11.10;99.90;;;;;;4402426;32;20145;-70
2021/12/12 05:07:57;;;;;;;14.48;8.60;;;-11.30;99.90;;;;;;4402285;32;20156;-69
2021/12/12 05:10:41;;;;;;;17.83;10.73;;;-11.30;99.90;;;;;;4402469;32;20070;-69
2021/12/12 05:13:16;;;;;;;29.55;14.38;;;-11.20;99.90;;;;;;4389579;32;20077;-69
2021/12/12 05:15:49;;;;;;;17.52;9.57;;;-11.10;99.90;;;;;;4402032;32;20156;-69
2021/12/12 05:18:30;;;;;;;17.25;9.07;;;-11.10;99.90;;;;;;4383890;32;20077;-69
2021/12/12 05:21:06;;;;;;;15.52;8.90;;;-10.90;99.90;;;;;;4392472;32;20185;-70
2021/12/12 05:23:35;;;;;;;14.90;8.88;;;-11.00;99.90;;;;;;4392853;32;20177;-69
2021/12/12 05:26:21;;;;;;;14.45;6.10;;;-10.80;99.90;;;;;;4393783;32;20086;-69
2021/12/12 05:29:14;;;;;;;10.75;6.78;;;-10.90;99.90;;;;;;4404958;32;20533;-70
2021/12/12 05:31:51;;;;;;;95.03;46.58;;;-10.90;99.90;;;;;;4393514;32;20440;-69
2021/12/12 05:34:20;;;;;;;76.97;44.13;;;-10.90;99.90;;;;;;4404922;32;20086;-70
2021/12/12 05:36:47;;;;;;;56.35;27.33;;;-11.00;99.90;;;;;;4392703;32;20149;-70
2021/12/12 05:39:15;;;;;;;26.58;15.55;;;-10.10;99.90;;;;;;4393289;32;20088;-69
2021/12/12 05:41:42;;;;;;;25.62;13.35;;;-9.70;99.90;;;;;;4392107;32;20078;-69
2021/12/12 05:44:09;;;;;;;26.30;14.45;;;-9.80;99.90;;;;;;4379358;32;20077;-69
2021/12/12 05:46:36;;;;;;;24.45;14.95;;;-10.10;99.90;;;;;;4391483;32;20475;-69
2021/12/12 05:49:05;;;;;;;33.13;16.17;;;-10.40;99.90;;;;;;4391603;32;20089;-70
2021/12/12 05:51:34;;;;;;;36.65;18.52;;;-10.60;99.90;;;;;;4391286;32;20109;-69
2021/12/12 05:54:01;;;;;;;39.28;21.23;;;-10.70;99.90;;;;;;4404452;32;20088;-69
2021/12/12 05:56:32;;;;;;;32.63;19.35;;;-10.60;99.90;;;;;;4379102;32;20101;-69
2021/12/12 05:59:00;;;;;;;29.87;16.83;;;-10.70;99.90;;;;;;4391862;32;20488;-67
2021/12/12 06:01:28;;;;;;;24.65;14.65;;;-10.60;99.90;;;;;;4391393;32;20069;-70
2021/12/12 06:03:55;;;;;;;27.95;16.08;;;-10.70;99.90;;;;;;4367429;32;20180;-69
2021/12/12 06:06:31;;;;;;;26.87;13.55;;;-10.40;99.90;;;;;;4378717;32;20150;-69
2021/12/12 06:09:01;;;;;;;27.48;15.18;;;-10.10;99.90;;;;;;4379206;32;20093;-70
2021/12/12 06:11:33;;;;;;;27.65;14.63;;;-10.00;99.90;;;;;;4378627;32;20165;-70
2021/12/12 06:14:00;;;;;;;33.40;15.70;;;-9.90;99.90;;;;;;4392526;32;20100;-70
2021/12/12 06:16:30;;;;;;;26.77;14.65;;;-10.10;99.90;;;;;;4391867;32;20077;-69
2021/12/12 06:19:13;;;;;;;28.42;14.87;;;-10.20;99.90;;;;;;4391413;32;20078;-70
2021/12/12 06:21:41;;;;;;;25.98;15.57;;;-10.00;99.90;;;;;;4378908;32;20105;-69
2021/12/12 06:24:08;;;;;;;25.02;14.85;;;-10.00;99.90;;;;;;4390880;32;20142;-70
2021/12/12 06:26:37;;;;;;;29.52;14.70;;;-9.90;99.90;;;;;;4403675;32;20472;-70
2021/12/12 06:29:05;;;;;;;27.95;15.18;;;-10.00;99.90;;;;;;4402863;32;20074;-69
2021/12/12 06:31:32;;;;;;;25.15;13.45;;;-9.90;99.90;;;;;;4391283;32;20077;-70
2021/12/12 06:33:58;;;;;;;25.80;12.80;;;-9.70;99.90;;;;;;4390948;32;20519;-69
2021/12/12 06:36:25;;;;;;;21.70;11.10;;;-9.70;99.90;;;;;;4390807;32;20508;-68
2021/12/12 06:38:55;;;;;;;20.88;12.30;;;-9.50;99.90;;;;;;4378081;32;20097;-70
2021/12/12 06:41:22;;;;;;;24.35;12.10;;;-9.50;99.90;;;;;;4390809;32;20078;-70
2021/12/12 06:43:50;;;;;;;21.83;12.55;;;-9.40;99.90;;;;;;4390675;32;20077;-68
2021/12/12 06:46:19;;;;;;;29.48;13.02;;;-9.20;99.90;;;;;;4390640;32;20084;-69
2021/12/12 06:48:46;;;;;;;22.85;11.75;;;-9.10;99.90;;;;;;4391111;32;20078;-70
2021/12/12 06:51:13;;;;;;;18.45;11.25;;;-9.10;99.90;;;;;;4390743;32;20081;-70
2021/12/12 06:53:44;;;;;;;18.83;11.75;;;-9.00;99.90;;;;;;4391982;32;20084;-70
2021/12/12 06:56:16;;;;;;;17.98;10.95;;;-9.20;99.90;;;;;;4390560;32;20077;-69
2021/12/12 06:58:43;;;;;;;22.40;11.25;;;-9.10;99.90;;;;;;4404092;32;20078;-70
2021/12/12 07:01:20;;;;;;;21.85;11.55;;;-8.90;99.90;;;;;;4390663;32;20069;-69
2021/12/12 07:03:51;;;;;;;23.80;11.63;;;-8.60;99.90;;;;;;4390291;32;20082;-68
2021/12/12 07:06:21;;;;;;;20.08;10.48;;;-8.50;99.90;;;;;;4390020;32;20077;-69
2021/12/12 07:08:48;;;;;;;21.95;10.90;;;-8.50;99.90;;;;;;4390469;32;20089;-69
2021/12/12 07:11:19;;;;;;;20.62;9.45;;;-8.40;99.90;;;;;;4403229;32;20077;-69
2021/12/12 07:13:47;;;;;;;24.65;10.38;;;-8.30;99.90;;;;;;4403094;32;20166;-70
2021/12/12 07:16:15;;;;;;;23.65;10.80;;;-8.20;99.90;;;;;;4402886;32;20519;-71
2021/12/12 07:18:42;;;;;;;22.77;11.27;;;-8.10;99.90;;;;;;4390243;32;20512;-70
2021/12/12 07:21:17;;;;;;;24.33;10.60;;;-7.90;99.90;;;;;;4390593;32;20081;-69
2021/12/12 07:23:46;;;;;;;19.98;10.38;;;-7.90;99.90;;;;;;4390592;32;20074;-69
2021/12/12 07:26:15;;;;;;;23.85;11.60;;;-7.70;99.90;;;;;;4390180;32;20081;-70
2021/12/12 07:28:43;;;;;;;20.98;10.88;;;-7.70;99.90;;;;;;4402555;32;20512;-69
2021/12/12 07:31:16;;;;;;;19.83;11.65;;;-7.60;99.90;;;;;;4391745;32;20114;-69
2021/12/12 07:33:44;;;;;;;23.85;11.32;;;-7.20;99.90;;;;;;4390570;32;20082;-69
2021/12/12 07:36:14;;;;;;;18.00;11.35;;;-6.90;99.90;;;;;;4389939;32;20097;-69
2021/12/12 07:38:51;;;;;;;21.02;10.98;;;-6.70;99.90;;;;;;4402811;32;20076;-69
2021/12/12 07:41:25;;;;;;;24.90;12.80;;;-6.70;99.90;;;;;;4377933;32;20167;-69
2021/12/12 07:43:52;;;;;;;28.15;13.60;;;-7.00;99.90;;;;;;4389939;32;20096;-69
2021/12/12 07:46:20;;;;;;;34.45;13.52;;;-7.00;99.90;;;;;;4389799;32;20165;-68
2021/12/12 07:48:50;;;;;;;24.73;12.77;;;-7.30;99.90;;;;;;4390032;32;20081;-69
2021/12/12 07:51:20;;;;;;;32.55;13.55;;;-7.10;99.90;;;;;;4402547;32;20096;-67
2021/12/12 07:53:52;;;;;;;31.15;13.50;;;-7.00;99.90;;;;;;4389710;32;20089;-69
2021/12/12 07:56:21;;;;;;;22.60;13.55;;;-6.90;99.90;;;;;;4390972;32;20082;-70
2021/12/12 07:58:49;;;;;;;26.62;14.05;;;-7.10;99.90;;;;;;4402915;32;20237;-69
2021/12/12 08:01:17;;;;;;;24.23;13.50;;;-7.00;99.90;;;;;;4402655;32;20189;-68
2021/12/12 08:03:44;;;;;;;24.30;12.73;;;-6.80;99.90;;;;;;4402994;32;20490;-69
2021/12/12 08:06:15;;;;;;;19.42;12.73;;;-6.80;99.90;;;;;;4367371;32;20077;-70
2021/12/12 08:08:43;;;;;;;21.15;13.57;;;-6.80;99.90;;;;;;4406422;32;20082;-70
2021/12/12 08:11:15;;;;;;;29.23;14.18;;;-6.80;99.90;;;;;;4392421;32;20081;-70
2021/12/12 08:13:41;;;;;;;28.98;15.30;;;-6.70;99.90;;;;;;4391317;32;20070;-70
2021/12/12 08:16:09;;;;;;;33.00;17.27;;;-6.60;99.90;;;;;;4391576;32;20089;-70
2021/12/12 08:18:38;;;;;;;27.80;16.30;;;-6.50;99.90;;;;;;4390652;32;20173;-70
2021/12/12 08:21:07;;;;;;;29.17;16.77;;;-6.50;99.90;;;;;;4390157;32;20078;-70
2021/12/12 08:23:35;;;;;;;34.88;17.45;;;-6.30;99.90;;;;;;4402772;32;20073;-70
2021/12/12 08:26:03;;;;;;;25.85;15.23;;;-6.40;99.90;;;;;;4401982;32;20077;-69
2021/12/12 08:28:30;;;;;;;29.17;14.87;;;-6.60;99.90;;;;;;4402434;32;20100;-70
2021/12/12 08:30:57;;;;;;;22.30;14.80;;;-6.60;99.90;;;;;;4390079;32;20094;-69
2021/12/12 08:33:25;;;;;;;23.58;14.65;;;-6.50;99.90;;;;;;4389976;32;20088;-69
2021/12/12 08:35:52;;;;;;;18.35;12.07;;;-6.50;99.90;;;;;;4389576;32;20066;-69
2021/12/12 08:38:19;;;;;;;18.12;10.27;;;-6.60;99.90;;;;;;4402454;32;20492;-69
2021/12/12 08:40:54;;;;;;;16.83;10.15;;;-6.50;99.90;;;;;;4402773;32;20097;-69
2021/12/12 08:43:23;;;;;;;17.42;10.45;;;-6.50;99.90;;;;;;4389672;32;20162;-69
2021/12/12 08:46:13;;;;;;;16.75;9.43;;;-6.50;99.90;;;;;;4389421;32;20227;-70
2021/12/12 08:48:46;;;;;;;16.87;9.43;;;-6.50;99.90;;;;;;4389633;32;20616;-70
2021/12/12 08:51:22;;;;;;;18.55;9.25;;;-6.10;99.90;;;;;;4389305;32;20170;-68
2021/12/12 08:53:51;;;;;;;14.20;8.95;;;-5.80;99.90;;;;;;4391126;32;20500;-70
2021/12/12 08:56:31;;;;;;;14.27;8.88;;;-5.80;99.90;;;;;;4405099;32;20084;-69
2021/12/12 08:59:00;;;;;;;12.88;8.05;;;-6.10;99.90;;;;;;4381202;32;20223;-70
2021/12/12 09:01:27;;;;;;;14.87;7.72;;;-6.20;99.90;;;;;;4379516;32;20101;-69
2021/12/12 09:04:04;;;;;;;16.45;7.57;;;-5.90;99.90;;;;;;4380133;32;20440;-69
2021/12/12 09:06:36;;;;;;;15.50;7.60;;;-6.00;99.90;;;;;;4392132;32;20097;-69
2021/12/12 09:09:20;;;;;;;16.62;8.27;;;-5.90;99.90;;;;;;4393471;32;20177;-70
2021/12/12 09:12:00;;;;;;;13.00;7.97;;;-6.10;99.90;;;;;;4392893;32;20078;-69
2021/12/12 09:14:47;;;;;;;16.73;8.50;;;-6.00;99.90;;;;;;4391955;32;20093;-70
2021/12/12 09:17:53;;;;;;;14.98;8.38;;;-6.00;99.90;;;;;;4379031;32;20089;-70
2021/12/12 09:20:35;;;;;;;13.25;7.07;;;-5.90;99.90;;;;;;4381311;32;20081;-70
2021/12/12 09:23:12;;;;;;;14.23;8.25;;;-5.80;99.90;;;;;;4392372;32;20096;-70
2021/12/12 09:25:50;;;;;;;15.32;8.35;;;-5.70;99.90;;;;;;4392415;32;20078;-70
2021/12/12 09:28:44;;;;;;;16.35;8.55;;;-5.70;99.90;;;;;;4392553;32;20181;-70
2021/12/12 09:31:40;;;;;;;15.23;8.15;;;-5.60;99.90;;;;;;4392491;32;20097;-70
2021/12/12 09:34:19;;;;;;;14.55;7.75;;;-5.60;99.90;;;;;;4404109;32;20085;-69
2021/12/12 09:37:07;;;;;;;13.35;7.60;;;-5.30;99.90;;;;;;4392776;32;20189;-70
2021/12/12 09:39:48;;;;;;;13.73;7.55;;;-5.20;99.90;;;;;;4391560;32;20515;-70
2021/12/12 09:42:53;;;;;;;14.73;7.72;;;-5.20;99.90;;;;;;4404058;32;20093;-70
2021/12/12 09:46:39;;;;;;;15.70;7.62;;;-5.30;99.90;;;;;;4391678;32;20491;-70
2021/12/12 09:52:27;;;;;;;24.85;9.45;;;-5.20;99.90;;;;;;4391946;32;20076;-70
2021/12/12 09:55:15;;;;;;;19.08;9.80;;;-5.10;99.90;;;;;;4379145;32;20102;-69
2021/12/12 09:58:06;;;;;;;22.05;9.73;;;-5.10;99.90;;;;;;4391775;32;20070;-70
2021/12/12 10:00:44;;;;;;;23.02;10.25;;;-4.90;99.90;;;;;;4379147;32;20101;-69
2021/12/12 10:03:13;;;;;;;17.55;9.20;;;-4.80;99.90;;;;;;4392639;32;20093;-70
2021/12/12 10:06:03;;;;;;;20.75;9.95;;;-4.80;99.90;;;;;;4391380;32;20066;-70
2021/12/12 10:08:57;;;;;;;21.60;10.90;;;-4.70;99.90;;;;;;4391954;32;20255;-70
2021/12/12 10:11:45;;;;;;;21.33;10.65;;;-4.60;99.90;;;;;;4378658;32;20576;-69
2021/12/12 10:14:58;;;;;;;24.17;12.13;;;-4.60;99.90;;;;;;4391545;32;20085;-70
2021/12/12 10:17:46;;;;;;;23.98;12.13;;;-4.50;99.90;;;;;;4367461;32;20089;-69
2021/12/12 10:20:33;;;;;;;23.70;11.82;;;-4.40;99.90;;;;;;4378480;32;20081;-70
2021/12/12 10:23:50;;;;;;;26.12;11.68;;;-4.50;99.90;;;;;;4392814;32;20080;-70
2021/12/12 10:26:30;;;;;;;27.50;12.68;;;-4.40;99.90;;;;;;4382526;32;20109;-70
2021/12/12 10:29:27;;;;;;;31.10;14.87;;;-4.50;99.90;;;;;;4391123;32;20160;-70
2021/12/12 10:32:12;;;;;;;32.78;17.58;;;-4.40;99.90;;;;;;4378363;32;20169;-69
2021/12/12 10:35:11;;;;;;;33.63;18.85;;;-4.40;99.90;;;;;;4391341;32;20093;-70
2021/12/12 10:38:00;;;;;;;31.77;18.85;;;-4.40;99.90;;;;;;4373166;32;20093;-70
2021/12/12 10:41:05;;;;;;;35.33;19.35;;;-4.40;99.90;;;;;;4378165;32;20509;-70
2021/12/12 10:43:45;;;;;;;37.80;18.70;;;-4.30;99.90;;;;;;4377506;32;20093;-70
2021/12/12 10:46:24;;;;;;;44.72;22.33;;;-4.30;99.90;;;;;;4403019;32;20103;-70
2021/12/12 10:49:17;;;;;;;42.65;22.15;;;-4.30;99.90;;;;;;4403245;32;20086;-70
2021/12/12 10:52:11;;;;;;;43.47;20.90;;;-4.20;99.90;;;;;;4378397;32;20078;-70
2021/12/12 10:54:43;;;;;;;41.63;21.67;;;-4.20;99.90;;;;;;4378780;32;20484;-69
2021/12/12 10:57:17;;;;;;;38.20;21.50;;;-4.20;99.90;;;;;;4391722;32;20258;-69
2021/12/12 11:00:18;;;;;;;36.47;22.42;;;-4.20;99.90;;;;;;4391136;32;20090;-70
2021/12/12 11:03:19;;;;;;;43.25;23.17;;;-4.20;99.90;;;;;;4390480;32;20101;-70
2021/12/12 11:06:15;;;;;;;40.92;21.85;;;-4.20;99.90;;;;;;4377664;32;21162;-70
2021/12/12 11:08:51;;;;;;;40.55;22.05;;;-4.20;99.90;;;;;;4390906;32;20073;-69
2021/12/12 11:11:35;;;;;;;43.33;21.98;;;-4.20;99.90;;;;;;4392353;32;20097;-70
2021/12/12 11:14:22;;;;;;;39.85;23.38;;;-4.20;99.90;;;;;;4403671;32;20077;-70
2021/12/12 11:17:01;;;;;;;38.30;23.98;;;-4.20;99.90;;;;;;4390445;32;20091;-70
2021/12/12 11:19:36;;;;;;;38.30;22.23;;;-4.20;99.90;;;;;;4392067;32;20142;-70
2021/12/12 11:22:17;;;;;;;44.75;22.98;;;-4.20;99.90;;;;;;4390565;32;20511;-69
2021/12/12 11:24:57;;;;;;;32.97;20.80;;;-4.20;99.90;;;;;;4390995;32;20112;-70
2021/12/12 11:27:43;;;;;;;33.83;20.33;;;-4.20;99.90;;;;;;4390044;32;20080;-70
2021/12/12 11:30:21;;;;;;;34.67;21.23;;;-4.20;99.90;;;;;;4402655;32;20085;-69
2021/12/12 11:32:51;;;;;;;44.50;24.85;;;-4.20;99.90;;;;;;4402517;32;20097;-70
2021/12/12 11:35:23;;;;;;;41.80;23.27;;;-4.30;99.90;;;;;;4389965;32;20097;-70
2021/12/12 11:37:50;;;;;;;36.30;22.40;;;-4.30;99.90;;;;;;4377541;32;20081;-70
2021/12/12 11:40:30;;;;;;;43.28;23.60;;;-4.20;99.90;;;;;;4377392;32;20500;-69
2021/12/12 11:43:26;;;;;;;32.78;21.35;;;-4.40;99.90;;;;;;4389835;32;20150;-71
2021/12/12 11:46:05;;;;;;;33.08;19.35;;;-4.40;99.90;;;;;;4378026;32;20072;-69
2021/12/12 11:48:50;;;;;;;29.55;17.50;;;-4.40;99.90;;;;;;4402697;32;20090;-69
2021/12/12 11:51:35;;;;;;;32.20;18.02;;;-4.40;99.90;;;;;;4389967;32;20145;-70
2021/12/12 11:54:52;;;;;;;27.77;16.27;;;-4.40;99.90;;;;;;4389919;32;20088;-69
2021/12/12 11:57:32;;;;;;;41.78;16.75;;;-4.50;99.90;;;;;;4382831;32;20082;-69
2021/12/12 12:00:25;;;;;;;28.62;13.35;;;-4.50;99.90;;;;;;4402800;32;20100;-70
2021/12/12 12:03:45;;;;;;;23.17;12.77;;;-4.60;99.90;;;;;;4390398;32;20093;-69
2021/12/12 12:06:29;;;;;;;22.67;11.60;;;-4.70;99.90;;;;;;4388026;32;20081;-70
2021/12/12 12:09:06;;;;;;;24.67;11.73;;;-4.80;99.90;;;;;;4390118;32;20102;-70
2021/12/12 12:11:51;;;;;;;25.40;13.05;;;-4.80;99.90;;;;;;4377340;32;20077;-69
2021/12/12 12:14:32;;;;;;;27.65;14.77;;;-4.80;99.90;;;;;;4389804;32;20094;-69
2021/12/12 12:17:24;;;;;;;29.58;15.20;;;-4.80;99.90;;;;;;4391283;32;20519;-70
2021/12/12 12:20:02;;;;;;;27.02;14.18;;;-4.80;99.90;;;;;;4389914;32;20089;-70
2021/12/12 12:22:38;;;;;;;27.33;14.93;;;-4.80;99.90;;;;;;4377350;32;20088;-69
2021/12/12 12:25:25;;;;;;;32.35;16.98;;;-4.90;99.90;;;;;;4389932;32;20066;-71
2021/12/12 12:28:05;;;;;;;33.30;18.95;;;-4.90;99.90;;;;;;4377670;32;20074;-69
2021/12/12 12:30:31;;;;;;;32.00;17.02;;;-4.90;99.90;;;;;;4380417;32;20145;-69
2021/12/12 12:33:12;;;;;;;29.65;15.52;;;-4.90;99.90;;;;;;4392791;32;20157;-69
2021/12/12 12:36:28;;;;;;;27.70;14.65;;;-4.90;99.90;;;;;;4379944;32;20092;-69
2021/12/12 12:39:48;;;;;;;27.55;14.73;;;-5.10;99.90;;;;;;4394553;32;20153;-69
2021/12/12 12:43:10;;;;;;;23.10;14.52;;;-5.10;99.90;;;;;;4392730;32;20082;-69
2021/12/12 12:46:29;;;;;;;23.73;14.18;;;-5.10;99.90;;;;;;4393864;32;20147;-70
2021/12/12 12:50:01;;;;;;;20.40;11.68;;;-5.20;99.90;;;;;;4392479;32;20081;-69
2021/12/12 12:53:04;;;;;;;24.10;12.43;;;-5.20;99.90;;;;;;4359000;32;20167;-70
2021/12/12 12:55:46;;;;;;;25.83;13.38;;;-5.40;99.90;;;;;;4367393;32;20088;-69
2021/12/12 12:58:24;;;;;;;22.58;12.30;;;-5.40;99.90;;;;;;4393778;32;20492;-69
2021/12/12 13:01:25;;;;;;;21.33;12.77;;;-5.30;99.90;;;;;;4394361;32;20092;-69
2021/12/12 13:04:48;;;;;;;23.10;12.70;;;-5.20;99.90;;;;;;4363471;32;20433;-69
2021/12/12 13:07:40;;;;;;;19.50;12.07;;;-5.30;99.90;;;;;;4383388;32;20086;-69
2021/12/12 13:10:17;;;;;;;24.20;12.48;;;-5.40;99.90;;;;;;4397537;32;20077;-69
2021/12/12 13:13:04;;;;;;;22.05;12.10;;;-5.50;99.90;;;;;;4398719;32;20084;-69
2021/12/12 13:16:00;;;;;;;22.13;12.15;;;-5.40;99.90;;;;;;4389288;32;20066;-69
2021/12/12 13:18:58;;;;;;;26.05;13.77;;;-5.40;99.90;;;;;;4391167;32;20515;-69
2021/12/12 13:21:48;;;;;;;21.00;12.37;;;-5.40;99.90;;;;;;4409814;32;20181;-70
2021/12/12 13:24:53;;;;;;;17.67;10.23;;;-5.30;99.90;;;;;;4381487;32;20054;-69
2021/12/12 13:28:19;;;;;;;23.52;12.65;;;-5.40;99.90;;;;;;4404798;32;20065;-69
2021/12/12 13:31:39;;;;;;;22.50;12.13;;;-5.40;99.90;;;;;;4374183;32;20136;-70
2021/12/12 13:34:15;;;;;;;26.45;12.55;;;-5.50;99.90;;;;;;4358713;32;20078;-69
2021/12/12 13:37:17;;;;;;;25.05;13.68;;;-5.40;99.90;;;;;;4379202;32;20527;-69
2021/12/12 13:40:24;;;;;;;25.50;14.43;;;-5.50;99.90;;;;;;4350905;32;20099;-69
2021/12/12 13:43:08;;;;;;;28.55;14.57;;;-5.50;99.90;;;;;;4391544;32;20457;-70
2021/12/12 13:45:49;;;;;;;28.05;14.07;;;-5.50;99.90;;;;;;4379412;32;20086;-69